Time;durP1;ratioP1;P1;durP2;ratioP2;P2;SDS_P1;SDS_P2;PMS_P1;PMS_P2;Temp;Humidity;BMP_temperature;BMP_pressure;BME280_temperature;BME280_humidity;BME280_pressure;Samples;Min_cycle;Max_cycle;Signal;HPM_P1;HPM_P2
2021/09/06 00:01:29;;;;;;;42.47;24.07;;;15.70;70.10;;;;;;5073917;28;20376;-76
2021/09/06 00:03:55;;;;;;;42.03;24.20;;;15.50;72.40;;;;;;5072902;28;20431;-75
2021/09/06 00:06:20;;;;;;;38.07;23.80;;;15.40;74.40;;;;;;5072909;28;20467;-76
2021/09/06 00:08:46;;;;;;;45.63;24.00;;;15.30;75.90;;;;;;5072663;28;20863;-76
2021/09/06 00:11:12;;;;;;;37.58;23.45;;;15.20;78.20;;;;;;5072142;28;20428;-75
2021/09/06 00:13:39;;;;;;;41.67;24.70;;;15.20;79.50;;;;;;5072953;28;20407;-74
2021/09/06 00:16:05;;;;;;;37.25;23.05;;;15.30;79.50;;;;;;5073821;28;20387;-75
2021/09/06 00:18:31;;;;;;;40.55;23.70;;;15.20;79.40;;;;;;5074514;28;20390;-76
2021/09/06 00:20:58;;;;;;;40.60;24.10;;;15.10;82.30;;;;;;5072003;28;20807;-75
2021/09/06 00:23:25;;;;;;;41.50;23.98;;;15.10;82.90;;;;;;5074846;28;20391;-75
2021/09/06 00:25:51;;;;;;;37.10;22.27;;;15.10;83.60;;;;;;5062285;28;20394;-76
2021/09/06 00:28:16;;;;;;;36.83;23.25;;;15.10;83.90;;;;;;5047325;28;20397;-75
2021/09/06 00:30:42;;;;;;;39.00;23.85;;;15.00;84.90;;;;;;5062873;28;20601;-75
2021/09/06 00:33:08;;;;;;;37.42;23.70;;;15.10;83.80;;;;;;5068759;28;20411;-75
2021/09/06 00:35:34;;;;;;;41.33;24.25;;;15.00;83.40;;;;;;5087071;28;20416;-74
2021/09/06 00:38:00;;;;;;;40.42;23.75;;;14.90;84.70;;;;;;5087820;28;20800;-76
2021/09/06 00:40:26;;;;;;;37.43;22.60;;;14.90;85.60;;;;;;5084766;28;20403;-76
2021/09/06 00:42:51;;;;;;;40.22;23.58;;;14.90;87.10;;;;;;5079944;28;20386;-76
2021/09/06 00:45:17;;;;;;;35.80;22.47;;;14.80;88.00;;;;;;5078852;28;20764;-75
2021/09/06 00:47:43;;;;;;;41.15;24.80;;;14.90;88.00;;;;;;5075384;28;20383;-76
2021/09/06 00:50:13;;;;;;;37.45;23.27;;;15.10;85.40;;;;;;5078731;28;20408;-75
2021/09/06 00:52:43;;;;;;;42.53;24.30;;;15.10;83.90;;;;;;5079340;28;20502;-75
2021/09/06 00:55:10;;;;;;;42.45;23.40;;;15.00;82.90;;;;;;5049872;28;20479;-74
2021/09/06 00:57:36;;;;;;;37.08;22.52;;;14.90;84.70;;;;;;5058949;28;20477;-75
2021/09/06 01:00:05;;;;;;;39.55;23.25;;;14.80;86.00;;;;;;5057357;28;20417;-76
2021/09/06 01:02:30;;;;;;;37.70;23.50;;;14.70;87.80;;;;;;5075705;28;20376;-75
2021/09/06 01:04:56;;;;;;;35.10;22.83;;;14.60;88.80;;;;;;5075982;28;20449;-74
2021/09/06 01:07:22;;;;;;;38.77;23.20;;;14.50;89.70;;;;;;5079771;22;20463;-74
2021/09/06 01:09:47;;;;;;;38.50;22.40;;;14.60;89.20;;;;;;5052671;28;20466;-74
2021/09/06 01:12:13;;;;;;;37.03;23.00;;;14.60;89.30;;;;;;5056387;28;20381;-75
2021/09/06 01:14:39;;;;;;;44.13;23.58;;;14.60;90.00;;;;;;5046103;28;20399;-75
2021/09/06 01:17:05;;;;;;;35.53;22.95;;;14.60;89.70;;;;;;5038885;28;20389;-75
2021/09/06 01:19:31;;;;;;;41.95;24.40;;;14.50;90.20;;;;;;5038873;28;20493;-75
2021/09/06 01:21:56;;;;;;;37.70;23.85;;;14.50;90.80;;;;;;5038734;28;20419;-75
2021/09/06 01:24:22;;;;;;;41.43;24.73;;;14.50;91.50;;;;;;5047734;28;20393;-75
2021/09/06 01:26:48;;;;;;;42.07;24.37;;;14.50;91.80;;;;;;5056667;28;20393;-74
2021/09/06 01:29:14;;;;;;;35.30;22.92;;;14.40;91.90;;;;;;5032949;28;20475;-75
2021/09/06 01:31:40;;;;;;;38.05;22.75;;;14.40;92.30;;;;;;5033079;28;20383;-74
2021/09/06 01:34:08;;;;;;;38.03;23.00;;;14.30;93.20;;;;;;5038570;28;20402;-75
2021/09/06 01:36:34;;;;;;;38.38;22.80;;;14.30;93.20;;;;;;5033129;28;20399;-74
2021/09/06 01:38:59;;;;;;;39.33;23.27;;;14.30;94.40;;;;;;5033098;28;20441;-74
2021/09/06 01:41:25;;;;;;;40.43;24.20;;;14.60;90.70;;;;;;5048740;28;20818;-75
2021/09/06 01:43:50;;;;;;;44.78;23.58;;;14.70;88.50;;;;;;5052971;28;20385;-74
2021/09/06 01:46:16;;;;;;;37.83;22.92;;;14.50;87.90;;;;;;5052579;28;20410;-72
2021/09/06 01:48:42;;;;;;;38.57;23.40;;;14.50;89.10;;;;;;5047566;28;20394;-74
2021/09/06 01:51:07;;;;;;;37.83;23.30;;;14.50;88.90;;;;;;5032369;28;20863;-75
2021/09/06 01:53:33;;;;;;;39.67;23.20;;;14.40;90.20;;;;;;5033250;28;20402;-74
2021/09/06 01:55:58;;;;;;;40.85;23.48;;;14.40;89.80;;;;;;5031264;28;20402;-74
2021/09/06 01:58:24;;;;;;;38.75;23.20;;;14.40;90.80;;;;;;5033965;28;20950;-74
2021/09/06 02:00:49;;;;;;;39.57;23.93;;;14.40;91.50;;;;;;5047300;28;20387;-74
2021/09/06 02:03:15;;;;;;;39.23;23.40;;;14.60;87.50;;;;;;5032854;28;20427;-74
2021/09/06 02:05:41;;;;;;;41.07;22.97;;;14.60;85.00;;;;;;5033267;28;20394;-74
2021/09/06 02:08:08;;;;;;;38.35;21.73;;;14.60;83.70;;;;;;5031377;28;20500;-75
2021/09/06 02:10:34;;;;;;;38.92;22.52;;;14.60;85.60;;;;;;5052146;28;20499;-74
2021/09/06 02:12:59;;;;;;;41.45;24.02;;;14.50;84.30;;;;;;5051658;28;20398;-75
2021/09/06 02:15:25;;;;;;;39.57;22.10;;;14.50;85.80;;;;;;5052853;28;20388;-75
2021/09/06 02:17:50;;;;;;;35.13;21.60;;;14.60;82.00;;;;;;5051808;28;20409;-75
2021/09/06 02:20:16;;;;;;;38.27;21.93;;;14.70;77.00;;;;;;5036387;28;20398;-75
2021/09/06 02:22:41;;;;;;;36.47;21.17;;;14.50;77.60;;;;;;5034053;28;20387;-75
2021/09/06 02:25:08;;;;;;;38.45;21.98;;;14.50;77.90;;;;;;5032311;28;20387;-75
2021/09/06 02:27:34;;;;;;;35.85;22.90;;;14.40;79.50;;;;;;5038734;28;20397;-75
2021/09/06 02:29:59;;;;;;;34.70;21.20;;;14.30;82.30;;;;;;5046801;28;20390;-75
2021/09/06 02:32:25;;;;;;;34.17;21.93;;;14.40;81.10;;;;;;5051661;28;20432;-76
2021/09/06 02:34:50;;;;;;;38.63;21.87;;;14.20;82.20;;;;;;5034211;28;20398;-74
2021/09/06 02:37:16;;;;;;;38.33;22.17;;;14.10;84.60;;;;;;5032072;28;20481;-74
2021/09/06 02:39:42;;;;;;;35.83;22.20;;;14.00;87.20;;;;;;5038023;28;20395;-75
2021/09/06 02:42:08;;;;;;;35.33;22.03;;;14.00;88.60;;;;;;5032021;28;20387;-75
2021/09/06 02:44:34;;;;;;;34.80;20.60;;;14.00;86.80;;;;;;5032070;28;20383;-75
2021/09/06 02:46:59;;;;;;;36.73;21.90;;;13.90;88.10;;;;;;5047064;28;20390;-75
2021/09/06 02:49:25;;;;;;;38.33;22.43;;;13.80;90.10;;;;;;5052000;28;20381;-76
2021/09/06 02:51:51;;;;;;;37.08;22.58;;;13.90;90.40;;;;;;5053886;28;20389;-74
2021/09/06 02:54:17;;;;;;;40.35;23.40;;;13.80;90.20;;;;;;5059423;28;20659;-78
2021/09/06 02:56:44;;;;;;;38.90;23.00;;;13.90;90.70;;;;;;5050678;28;20431;-74
2021/09/06 02:59:10;;;;;;;36.17;23.45;;;13.80;90.70;;;;;;5051259;28;20390;-74
2021/09/06 03:01:35;;;;;;;34.65;21.40;;;13.70;91.10;;;;;;5055416;28;20412;-75
2021/09/06 03:04:01;;;;;;;34.43;21.00;;;13.70;92.20;;;;;;5054284;28;20419;-74
2021/09/06 03:06:27;;;;;;;39.83;23.48;;;13.70;93.10;;;;;;5052780;28;20440;-73
2021/09/06 03:08:52;;;;;;;36.83;22.30;;;13.60;93.40;;;;;;5051434;28;20389;-74
2021/09/06 03:11:23;;;;;;;38.70;22.45;;;13.60;93.70;;;;;;5051011;28;20496;-74
2021/09/06 03:13:53;;;;;;;38.80;22.58;;;13.60;94.80;;;;;;5042072;28;20421;-74
2021/09/06 03:16:18;;;;;;;39.85;23.45;;;13.60;94.20;;;;;;5031489;28;20387;-74
2021/09/06 03:18:44;;;;;;;37.57;21.57;;;13.60;93.50;;;;;;5045238;28;20377;-75
2021/09/06 03:21:10;;;;;;;36.93;21.83;;;13.60;92.70;;;;;;5051193;28;20770;-75
2021/09/06 03:23:35;;;;;;;36.20;22.10;;;13.60;92.80;;;;;;5050967;28;20518;-75
2021/09/06 03:26:01;;;;;;;43.57;24.50;;;13.60;92.80;;;;;;5051334;28;20472;-76
2021/09/06 03:28:26;;;;;;;40.17;23.37;;;13.50;93.10;;;;;;5037262;28;20865;-75
2021/09/06 03:30:52;;;;;;;42.80;24.05;;;13.50;94.30;;;;;;5031263;28;20387;-74
2021/09/06 03:33:18;;;;;;;38.88;23.98;;;13.50;95.00;;;;;;5030498;28;20443;-73
2021/09/06 03:35:43;;;;;;;41.40;23.73;;;13.40;95.90;;;;;;5046363;28;20466;-73
2021/09/06 03:38:10;;;;;;;41.92;23.50;;;13.40;96.10;;;;;;5031762;28;20385;-74
2021/09/06 03:40:36;;;;;;;42.30;23.50;;;13.40;96.70;;;;;;5041748;28;20397;-74
2021/09/06 03:43:01;;;;;;;37.95;22.45;;;13.30;97.30;;;;;;5051543;28;20439;-74
2021/09/06 03:45:27;;;;;;;39.20;23.40;;;13.40;99.20;;;;;;5051508;28;20397;-75
2021/09/06 03:47:52;;;;;;;40.77;24.03;;;13.60;96.50;;;;;;5052417;28;20501;-75
2021/09/06 03:50:18;;;;;;;41.30;22.83;;;13.70;93.40;;;;;;5033873;28;20771;-75
2021/09/06 03:52:44;;;;;;;39.00;23.10;;;13.70;91.00;;;;;;5031659;28;20411;-74
2021/09/06 03:55:10;;;;;;;41.47;24.37;;;13.80;88.80;;;;;;5030736;28;20391;-75
2021/09/06 03:57:35;;;;;;;40.53;22.00;;;13.60;91.00;;;;;;5030544;28;20486;-74
2021/09/06 04:00:01;;;;;;;41.67;23.90;;;13.50;93.50;;;;;;5047275;28;20393;-74
2021/09/06 04:02:27;;;;;;;37.27;21.97;;;13.40;95.00;;;;;;5031751;28;20401;-74
2021/09/06 04:04:54;;;;;;;41.43;23.37;;;13.30;95.90;;;;;;5029459;28;20760;-74
2021/09/06 04:07:20;;;;;;;38.30;22.65;;;13.30;96.90;;;;;;5037461;28;20428;-74
2021/09/06 04:09:46;;;;;;;39.80;23.40;;;13.20;98.30;;;;;;5049109;28;20394;-75
2021/09/06 04:12:11;;;;;;;39.60;22.65;;;13.10;99.50;;;;;;5049132;28;20389;-75
2021/09/06 04:14:37;;;;;;;39.45;23.42;;;13.10;99.90;;;;;;5049302;28;20397;-74
2021/09/06 04:17:03;;;;;;;40.45;23.58;;;13.20;99.90;;;;;;5057106;28;20387;-75
2021/09/06 04:19:31;;;;;;;40.97;24.40;;;13.20;98.90;;;;;;5038931;28;20395;-75
2021/09/06 04:21:58;;;;;;;43.45;23.98;;;13.20;99.20;;;;;;5040853;28;20470;-75
2021/09/06 04:24:23;;;;;;;38.83;23.73;;;13.40;98.20;;;;;;5033859;28;20402;-74
2021/09/06 04:26:50;;;;;;;40.93;23.97;;;13.50;96.40;;;;;;5037565;28;20403;-74
2021/09/06 04:29:16;;;;;;;39.35;23.92;;;13.50;93.60;;;;;;5034930;28;20444;-74
2021/09/06 04:31:42;;;;;;;43.20;24.83;;;13.40;95.00;;;;;;5035530;28;20576;-75
2021/09/06 04:34:07;;;;;;;44.07;25.27;;;13.40;96.50;;;;;;5052112;28;20444;-76
2021/09/06 04:36:33;;;;;;;40.33;24.87;;;13.30;97.50;;;;;;5044803;28;20399;-76
2021/09/06 04:38:59;;;;;;;41.60;24.10;;;13.40;97.40;;;;;;5042483;28;20375;-76
2021/09/06 04:41:24;;;;;;;40.75;24.17;;;13.30;97.50;;;;;;5053098;28;20464;-77
2021/09/06 04:43:50;;;;;;;40.97;24.50;;;13.40;97.10;;;;;;5060029;28;20468;-78
2021/09/06 04:46:16;;;;;;;44.13;24.43;;;13.20;97.50;;;;;;5045675;28;20414;-77
2021/09/06 04:48:42;;;;;;;42.13;24.57;;;13.20;98.80;;;;;;5036372;28;20467;-78
2021/09/06 04:51:08;;;;;;;38.93;24.20;;;13.10;99.90;;;;;;5050814;28;20412;-78
2021/09/06 04:53:33;;;;;;;39.45;24.15;;;13.10;99.90;;;;;;5045513;28;20470;-76
2021/09/06 04:55:59;;;;;;;42.73;24.90;;;13.00;99.90;;;;;;5045244;28;20385;-76
2021/09/06 04:58:24;;;;;;;45.00;25.50;;;13.00;99.90;;;;;;5039570;28;20913;-75
2021/09/06 05:00:50;;;;;;;41.33;25.13;;;13.00;99.90;;;;;;5040618;28;20512;-76
2021/09/06 05:03:16;;;;;;;45.07;24.40;;;13.00;99.90;;;;;;5033739;28;20567;-77
2021/09/06 05:05:41;;;;;;;44.83;24.20;;;13.00;99.90;;;;;;5034131;28;20391;-76
2021/09/06 05:08:08;;;;;;;40.95;24.83;;;12.90;99.90;;;;;;5033625;28;20747;-76
2021/09/06 05:10:33;;;;;;;45.95;26.30;;;12.90;99.90;;;;;;5041803;28;20482;-76
2021/09/06 05:12:59;;;;;;;45.83;25.25;;;13.00;99.90;;;;;;5054213;28;20866;-76
2021/09/06 05:15:25;;;;;;;47.33;26.63;;;13.00;99.90;;;;;;5053511;28;20384;-76
2021/09/06 05:17:50;;;;;;;42.77;25.83;;;13.00;99.90;;;;;;5053444;28;20435;-74
2021/09/06 05:20:16;;;;;;;43.40;25.97;;;13.10;99.90;;;;;;5046507;28;20453;-75
2021/09/06 05:22:42;;;;;;;44.22;25.40;;;13.10;99.90;;;;;;5033945;28;20887;-76
2021/09/06 05:25:07;;;;;;;47.10;26.50;;;13.10;99.90;;;;;;5034274;28;20383;-78
2021/09/06 05:27:33;;;;;;;48.67;26.52;;;13.20;99.90;;;;;;5045363;28;20389;-76
2021/09/06 05:29:59;;;;;;;48.20;26.20;;;13.30;99.90;;;;;;5056997;28;20409;-76
2021/09/06 05:32:25;;;;;;;43.00;25.95;;;13.30;99.90;;;;;;5057841;28;20477;-79
2021/09/06 05:34:50;;;;;;;45.15;26.63;;;13.40;99.90;;;;;;5050672;28;20395;-76
2021/09/06 05:37:16;;;;;;;42.97;26.43;;;13.40;99.90;;;;;;5044836;28;20404;-77
2021/09/06 05:39:42;;;;;;;47.25;26.40;;;13.40;99.90;;;;;;5048796;28;20850;-77
2021/09/06 05:42:08;;;;;;;45.70;27.77;;;13.50;99.90;;;;;;5052151;28;20448;-75
2021/09/06 05:44:33;;;;;;;50.05;26.52;;;13.60;99.90;;;;;;5042639;28;20409;-75
2021/09/06 05:47:00;;;;;;;46.53;26.47;;;13.70;98.70;;;;;;5041259;28;20399;-76
2021/09/06 05:49:26;;;;;;;44.30;26.45;;;13.70;98.40;;;;;;5044116;28;20485;-75
2021/09/06 05:51:52;;;;;;;43.20;26.30;;;13.80;97.90;;;;;;5045379;28;20838;-75
2021/09/06 05:54:17;;;;;;;47.83;26.95;;;13.90;96.60;;;;;;5042527;28;20411;-76
2021/09/06 05:56:43;;;;;;;51.40;27.60;;;13.90;95.60;;;;;;5053954;28;20385;-75
2021/09/06 05:59:08;;;;;;;48.17;27.60;;;14.00;95.70;;;;;;5037396;28;20483;-76
2021/09/06 06:01:34;;;;;;;47.90;27.70;;;14.10;94.20;;;;;;5048735;28;20401;-75
2021/09/06 06:04:00;;;;;;;48.70;28.17;;;14.20;93.00;;;;;;5045563;28;20463;-77
2021/09/06 06:06:25;;;;;;;44.17;26.83;;;14.30;91.50;;;;;;5054702;28;20389;-76
2021/09/06 06:08:51;;;;;;;44.97;26.40;;;14.50;88.20;;;;;;5047120;28;20505;-75
2021/09/06 06:11:17;;;;;;;43.10;26.07;;;14.60;86.60;;;;;;5042264;28;20523;-77
2021/09/06 06:13:42;;;;;;;44.78;26.80;;;14.70;85.80;;;;;;5040803;28;20778;-75
2021/09/06 06:16:08;;;;;;;45.20;27.88;;;14.80;84.40;;;;;;5038832;28;20411;-74
2021/09/06 06:18:33;;;;;;;44.75;26.10;;;14.90;83.50;;;;;;5041527;28;20459;-76
2021/09/06 06:20:59;;;;;;;40.67;25.17;;;15.00;83.20;;;;;;5032656;28;20406;-77
2021/09/06 06:23:25;;;;;;;41.77;25.33;;;15.10;82.10;;;;;;5044492;28;21162;-76
2021/09/06 06:25:50;;;;;;;39.80;24.50;;;15.20;80.40;;;;;;5036768;28;20394;-75
2021/09/06 06:28:16;;;;;;;44.17;26.48;;;15.30;79.50;;;;;;5044962;28;20759;-74
2021/09/06 06:30:41;;;;;;;48.38;27.55;;;15.40;77.00;;;;;;5050270;28;20489;-76
2021/09/06 06:33:07;;;;;;;42.00;25.17;;;15.50;77.50;;;;;;5039731;28;20515;-74
2021/09/06 06:35:33;;;;;;;41.20;25.20;;;15.60;77.00;;;;;;5043759;28;20479;-74
2021/09/06 06:37:58;;;;;;;45.53;25.37;;;15.70;76.70;;;;;;5038183;28;20389;-75
2021/09/06 06:40:24;;;;;;;44.60;25.15;;;15.80;74.30;;;;;;5042694;28;20409;-74
2021/09/06 06:42:49;;;;;;;40.38;24.52;;;15.90;73.30;;;;;;5032690;28;20554;-76
2021/09/06 06:45:15;;;;;;;49.07;25.67;;;16.10;71.80;;;;;;5032048;28;20532;-76
2021/09/06 06:47:40;;;;;;;43.07;25.20;;;16.20;70.10;;;;;;5046621;28;20885;-76
2021/09/06 06:50:06;;;;;;;42.15;26.20;;;16.20;69.00;;;;;;5051812;28;20381;-76
2021/09/06 06:52:32;;;;;;;45.17;27.08;;;16.40;69.70;;;;;;5041140;28;20880;-77
2021/09/06 06:54:57;;;;;;;41.35;26.35;;;16.50;67.60;;;;;;5039786;28;20924;-75
2021/09/06 06:57:23;;;;;;;46.03;27.97;;;16.60;65.40;;;;;;5045147;28;20806;-75
2021/09/06 06:59:48;;;;;;;48.90;27.23;;;16.80;63.90;;;;;;5049468;28;20749;-76
2021/09/06 07:02:14;;;;;;;46.13;27.80;;;16.90;63.30;;;;;;5039308;28;20891;-77
2021/09/06 07:04:39;;;;;;;46.53;27.30;;;17.10;62.30;;;;;;5038248;28;20800;-77
2021/09/06 07:07:05;;;;;;;54.67;29.07;;;17.20;62.30;;;;;;5042304;28;20898;-74
2021/09/06 07:09:31;;;;;;;49.70;29.45;;;17.40;59.20;;;;;;5043402;28;20404;-75
2021/09/06 07:11:59;;;;;;;49.67;29.23;;;17.50;56.70;;;;;;5040070;28;20396;-76
2021/09/06 07:14:25;;;;;;;52.87;29.80;;;17.60;55.20;;;;;;5032539;28;20523;-76
2021/09/06 07:16:51;;;;;;;48.83;26.90;;;17.60;54.70;;;;;;5044490;28;20485;-75
2021/09/06 07:19:16;;;;;;;48.30;28.85;;;17.70;54.00;;;;;;5047389;28;20393;-73
2021/09/06 07:21:42;;;;;;;44.85;27.15;;;17.80;53.30;;;;;;5038560;28;20398;-76
2021/09/06 07:24:08;;;;;;;41.13;26.00;;;17.90;53.30;;;;;;5041693;28;20485;-77
2021/09/06 07:26:33;;;;;;;44.75;28.10;;;18.00;51.00;;;;;;5042491;28;20404;-79
2021/09/06 07:28:59;;;;;;;44.83;26.92;;;18.10;49.40;;;;;;5043880;28;20452;-76
2021/09/06 07:31:25;;;;;;;40.58;25.58;;;18.20;46.80;;;;;;5041635;28;20973;-79
2021/09/06 07:33:51;;;;;;;41.20;24.85;;;18.30;46.70;;;;;;5052400;28;20725;-76
2021/09/06 07:36:16;;;;;;;42.00;26.02;;;18.50;46.50;;;;;;5055014;28;20393;-78
2021/09/06 07:38:42;;;;;;;43.30;26.67;;;18.60;45.50;;;;;;5056242;28;20408;-80
2021/09/06 07:41:07;;;;;;;45.50;26.37;;;18.70;44.80;;;;;;5039456;28;20403;-76
2021/09/06 07:43:33;;;;;;;44.72;26.20;;;18.70;44.30;;;;;;5040061;28;20425;-78
2021/09/06 07:45:58;;;;;;;39.50;25.33;;;19.10;43.00;;;;;;5043898;28;20465;-77
2021/09/06 07:48:24;;;;;;;42.20;26.23;;;19.10;42.50;;;;;;5058733;28;20920;-78
2021/09/06 07:50:50;;;;;;;47.50;27.45;;;19.00;41.90;;;;;;5057167;28;20381;-78
2021/09/06 07:53:16;;;;;;;45.40;27.30;;;19.00;42.00;;;;;;5056827;28;20428;-80
2021/09/06 07:55:43;;;;;;;44.42;27.58;;;19.00;42.00;;;;;;5048630;28;20452;-78
2021/09/06 07:58:09;;;;;;;49.17;28.15;;;19.00;41.80;;;;;;5035471;28;20390;-78
2021/09/06 08:00:34;;;;;;;47.17;28.00;;;19.20;40.90;;;;;;5039433;28;20390;-79
2021/09/06 08:03:00;;;;;;;48.90;28.10;;;19.50;39.80;;;;;;5038342;28;20394;-76
2021/09/06 08:05:29;;;;;;;52.80;28.70;;;19.70;38.40;;;;;;5036107;28;20390;-79
2021/09/06 08:07:55;;;;;;;49.20;29.55;;;19.70;38.10;;;;;;5034530;28;20432;-78
2021/09/06 08:10:21;;;;;;;46.88;28.20;;;19.60;38.40;;;;;;5040806;28;20394;-78
2021/09/06 08:12:46;;;;;;;43.30;27.77;;;19.60;38.50;;;;;;5054808;28;20982;-77
2021/09/06 08:15:12;;;;;;;48.60;28.53;;;19.60;38.00;;;;;;5054426;28;20381;-80
2021/09/06 08:17:39;;;;;;;44.85;28.83;;;19.60;37.80;;;;;;5053947;28;20386;-77
2021/09/06 08:20:10;;;;;;;46.38;28.02;;;19.60;37.50;;;;;;5054250;28;20892;-77
2021/09/06 08:22:37;;;;;;;48.28;28.42;;;19.70;37.10;;;;;;5055599;28;20420;-78
2021/09/06 08:25:07;;;;;;;47.88;27.63;;;19.80;37.00;;;;;;5053575;28;20534;-78
2021/09/06 08:27:34;;;;;;;47.60;27.45;;;19.90;36.70;;;;;;5048420;28;20426;-78
2021/09/06 08:29:59;;;;;;;43.90;27.40;;;19.90;36.50;;;;;;5036030;28;20394;-77
2021/09/06 08:32:25;;;;;;;48.10;26.57;;;20.20;35.80;;;;;;5045189;28;20395;-79
2021/09/06 08:34:52;;;;;;;42.07;25.33;;;20.60;33.80;;;;;;5060821;28;20385;-77
2021/09/06 08:37:18;;;;;;;46.00;23.90;;;20.80;32.40;;;;;;5053138;28;20443;-78
2021/09/06 08:39:44;;;;;;;39.55;24.60;;;20.90;31.60;;;;;;5053509;28;20377;-78
2021/09/06 08:42:10;;;;;;;44.40;24.43;;;20.90;31.50;;;;;;5034358;28;20898;-79
2021/09/06 08:44:36;;;;;;;43.38;25.42;;;20.90;32.10;;;;;;5033573;28;20394;-78
2021/09/06 08:47:02;;;;;;;46.50;25.65;;;20.90;32.70;;;;;;5035472;28;20391;-78
2021/09/06 08:49:28;;;;;;;39.92;25.85;;;20.80;32.80;;;;;;5050601;28;20455;-78
2021/09/06 08:51:54;;;;;;;39.47;26.05;;;20.90;32.20;;;;;;5056763;28;20393;-76
2021/09/06 08:54:19;;;;;;;40.17;23.23;;;21.10;31.30;;;;;;5065760;28;20420;-77
2021/09/06 08:56:47;;;;;;;41.33;24.60;;;21.50;30.00;;;;;;5061978;28;20385;-77
2021/09/06 08:59:12;;;;;;;36.53;23.27;;;21.50;30.30;;;;;;5047056;28;20395;-79
2021/09/06 09:01:41;;;;;;;40.40;23.37;;;21.70;29.50;;;;;;5041662;28;20395;-79
2021/09/06 09:04:18;;;;;;;35.60;23.27;;;21.70;29.60;;;;;;5041245;28;20407;-78
2021/09/06 09:06:47;;;;;;;31.85;21.33;;;21.60;29.30;;;;;;5034674;28;20387;-78
2021/09/06 09:09:27;;;;;;;39.63;21.87;;;21.70;29.30;;;;;;5036962;28;20464;-79
2021/09/06 09:12:01;;;;;;;34.00;22.00;;;22.00;28.50;;;;;;5041171;28;20403;-79
2021/09/06 09:14:27;;;;;;;36.00;21.88;;;22.20;28.30;;;;;;5024264;28;20411;-79
2021/09/06 09:16:59;;;;;;;32.50;20.07;;;22.20;28.20;;;;;;5045192;28;20391;-77
2021/09/06 09:19:26;;;;;;;39.53;21.77;;;22.30;25.30;;;;;;5048912;28;20751;-78
2021/09/06 09:21:54;;;;;;;36.92;21.13;;;22.30;25.40;;;;;;5006686;28;20392;-79
2021/09/06 09:24:21;;;;;;;38.17;21.00;;;22.40;24.90;;;;;;5010710;28;20419;-77
2021/09/06 09:26:59;;;;;;;35.58;21.63;;;22.60;24.40;;;;;;5028776;28;20456;-78
2021/09/06 09:29:26;;;;;;;34.28;20.52;;;22.60;24.20;;;;;;5007345;28;20393;-80
2021/09/06 09:31:54;;;;;;;34.60;21.45;;;22.70;23.30;;;;;;5022507;28;20826;-76
2021/09/06 09:34:20;;;;;;;37.35;21.50;;;22.70;22.30;;;;;;5028552;28;20412;-77
2021/09/06 09:36:46;;;;;;;33.37;21.40;;;22.60;22.60;;;;;;5031596;28;20384;-76
2021/09/06 09:39:17;;;;;;;35.85;21.20;;;22.50;23.30;;;;;;5034616;28;20405;-77
2021/09/06 09:41:44;;;;;;;38.03;22.38;;;22.40;24.10;;;;;;5035617;28;20400;-77
2021/09/06 09:44:20;;;;;;;30.83;19.48;;;22.40;24.20;;;;;;5046136;28;20414;-77
2021/09/06 09:47:00;;;;;;;30.98;18.98;;;22.70;20.60;;;;;;5051817;28;20470;-74
2021/09/06 09:49:28;;;;;;;30.35;20.25;;;22.70;20.40;;;;;;5044655;28;20529;-74
2021/09/06 09:51:54;;;;;;;32.30;20.05;;;22.80;21.20;;;;;;5032051;28;20786;-76
2021/09/06 09:54:20;;;;;;;31.13;18.90;;;22.80;21.50;;;;;;5024487;28;20470;-75
2021/09/06 09:56:47;;;;;;;36.87;22.00;;;23.00;20.60;;;;;;5028704;28;20391;-76
2021/09/06 09:59:14;;;;;;;37.28;20.35;;;23.10;20.40;;;;;;5031513;28;20441;-76
2021/09/06 10:01:55;;;;;;;36.92;23.17;;;23.20;20.70;;;;;;5027707;28;20392;-76
2021/09/06 10:04:24;;;;;;;34.33;21.13;;;23.20;21.20;;;;;;5014688;28;20427;-77
2021/09/06 10:06:52;;;;;;;35.33;23.05;;;23.30;21.80;;;;;;5030898;28;20398;-76
2021/09/06 10:09:17;;;;;;;36.50;20.83;;;23.50;21.90;;;;;;5048224;28;20417;-76
2021/09/06 10:11:44;;;;;;;28.03;19.10;;;23.60;21.70;;;;;;5052521;28;20416;-76
2021/09/06 10:14:20;;;;;;;30.20;19.27;;;23.70;20.20;;;;;;5052685;28;20413;-75
2021/09/06 10:17:08;;;;;;;27.35;17.55;;;23.80;19.90;;;;;;5051925;28;20393;-72
2021/09/06 10:19:42;;;;;;;27.13;16.67;;;23.70;18.30;;;;;;5039190;28;20486;-74
2021/09/06 10:22:26;;;;;;;28.73;16.50;;;23.60;18.30;;;;;;5050652;28;20389;-75
2021/09/06 10:25:03;;;;;;;29.83;18.48;;;23.60;18.70;;;;;;5052450;28;20385;-73
2021/09/06 10:27:30;;;;;;;26.50;18.20;;;23.90;19.10;;;;;;5045451;28;20422;-73
2021/09/06 10:30:04;;;;;;;33.00;19.13;;;24.20;18.60;;;;;;5050085;28;20429;-74
2021/09/06 10:32:40;;;;;;;27.13;16.90;;;24.40;17.90;;;;;;5045139;28;20387;-73
2021/09/06 10:35:20;;;;;;;30.58;18.60;;;24.30;17.60;;;;;;5047150;28;20404;-71
2021/09/06 10:37:58;;;;;;;30.80;18.20;;;24.40;17.90;;;;;;5050794;28;20393;-71
2021/09/06 10:40:33;;;;;;;20.85;13.55;;;24.60;17.80;;;;;;5043714;28;20767;-73
2021/09/06 10:42:59;;;;;;;23.60;14.20;;;24.70;15.60;;;;;;5043664;28;20418;-72
2021/09/06 10:45:25;;;;;;;25.63;16.13;;;24.70;15.60;;;;;;5032331;28;20395;-76
2021/09/06 10:48:00;;;;;;;26.75;16.85;;;24.90;14.90;;;;;;5051273;28;20412;-75
2021/09/06 10:50:27;;;;;;;18.45;13.80;;;24.80;14.90;;;;;;5048695;28;20779;-76
2021/09/06 10:52:53;;;;;;;20.33;13.45;;;24.70;15.10;;;;;;5043556;28;20447;-73
2021/09/06 10:55:19;;;;;;;20.87;13.17;;;24.70;15.00;;;;;;5038861;28;20457;-73
2021/09/06 10:57:46;;;;;;;19.85;12.35;;;24.80;14.80;;;;;;5051884;28;20459;-73
2021/09/06 11:00:21;;;;;;;21.52;13.10;;;25.00;13.80;;;;;;5050901;28;20451;-73
2021/09/06 11:02:49;;;;;;;27.08;15.23;;;25.20;13.40;;;;;;5040812;28;20407;-73
2021/09/06 11:05:25;;;;;;;24.15;14.95;;;25.30;13.50;;;;;;5046789;28;20447;-74
2021/09/06 11:08:02;;;;;;;24.10;14.25;;;25.30;13.80;;;;;;5043500;28;20932;-73
2021/09/06 11:10:28;;;;;;;24.67;13.95;;;25.00;12.80;;;;;;5040982;28;20709;-73
2021/09/06 11:12:55;;;;;;;26.20;15.73;;;24.80;14.90;;;;;;5044533;28;20408;-72
2021/09/06 11:15:32;;;;;;;23.45;15.05;;;24.70;15.50;;;;;;5043699;28;20393;-74
2021/09/06 11:18:02;;;;;;;27.52;15.45;;;24.60;14.10;;;;;;5063633;28;20432;-75
2021/09/06 11:20:30;;;;;;;26.52;15.88;;;24.50;14.40;;;;;;5036751;28;20397;-76
2021/09/06 11:23:01;;;;;;;26.03;15.83;;;24.40;15.10;;;;;;5051062;28;21016;-75
2021/09/06 11:25:28;;;;;;;22.58;14.95;;;24.50;15.80;;;;;;5048151;28;20395;-75
2021/09/06 11:28:05;;;;;;;31.65;16.48;;;24.50;13.60;;;;;;5040750;28;20459;-76
2021/09/06 11:30:33;;;;;;;30.77;16.10;;;24.30;14.20;;;;;;5040949;28;20456;-75
2021/09/06 11:33:01;;;;;;;31.30;16.45;;;24.30;15.40;;;;;;5050764;28;20397;-76
2021/09/06 11:35:27;;;;;;;26.48;16.13;;;24.20;14.50;;;;;;5050253;28;20397;-77
2021/09/06 11:37:53;;;;;;;24.85;14.98;;;24.10;14.00;;;;;;5043205;28;20915;-75
2021/09/06 11:40:18;;;;;;;29.13;16.27;;;24.10;13.90;;;;;;5040613;28;20400;-76
2021/09/06 11:42:45;;;;;;;23.67;15.60;;;24.10;14.20;;;;;;5046451;28;20401;-76
2021/09/06 11:45:10;;;;;;;29.63;17.13;;;24.20;13.70;;;;;;5047484;28;20403;-76
2021/09/06 11:47:37;;;;;;;27.97;17.47;;;24.30;15.30;;;;;;5040380;28;20868;-73
2021/09/06 11:50:08;;;;;;;31.02;17.23;;;24.50;15.40;;;;;;5038809;28;20398;-75
2021/09/06 11:52:37;;;;;;;31.30;17.17;;;24.50;15.40;;;;;;5047119;28;20389;-75
2021/09/06 11:55:10;;;;;;;31.85;18.60;;;24.50;15.10;;;;;;5031946;28;20387;-76
2021/09/06 11:57:36;;;;;;;32.17;19.33;;;24.50;15.50;;;;;;5047307;28;20395;-76
2021/09/06 12:00:04;;;;;;;27.80;17.90;;;24.60;15.30;;;;;;5051682;28;20472;-76
2021/09/06 12:02:29;;;;;;;37.70;20.45;;;24.50;14.40;;;;;;5045603;28;20393;-76
2021/09/06 12:05:03;;;;;;;32.97;18.60;;;24.50;15.00;;;;;;5033636;28;20391;-74
2021/09/06 12:07:29;;;;;;;33.70;19.30;;;24.50;14.80;;;;;;5034912;28;20391;-74
2021/09/06 12:09:54;;;;;;;33.50;19.70;;;24.50;16.30;;;;;;5032761;28;20383;-74
2021/09/06 12:12:25;;;;;;;34.90;17.58;;;24.50;15.40;;;;;;5032219;28;20749;-75
2021/09/06 12:14:52;;;;;;;33.72;18.13;;;24.50;13.40;;;;;;5031325;28;20864;-75
2021/09/06 12:17:18;;;;;;;37.67;18.17;;;24.50;13.10;;;;;;5031061;28;20387;-75
2021/09/06 12:19:46;;;;;;;32.50;18.42;;;24.70;12.80;;;;;;5031029;28;20390;-74
2021/09/06 12:22:14;;;;;;;30.27;17.60;;;25.00;13.30;;;;;;5031193;28;20470;-75
2021/09/06 12:24:41;;;;;;;32.22;18.33;;;25.00;14.00;;;;;;5030266;28;20398;-73
2021/09/06 12:27:17;;;;;;;32.83;18.47;;;25.30;13.90;;;;;;5034398;28;20496;-76